sensor_id;sensor_type;location;lat;lon;timestamp;pressure;altitude;pressure_sealevel;temperature;humidity
25869;BME280;13688;53.154;18.136;2022-07-17T00:01:54;101391.41;;;11.29;75.29
25869;BME280;13688;53.154;18.136;2022-07-17T00:07:17;101387.44;;;11.22;75.50
25869;BME280;13688;53.154;18.136;2022-07-17T00:12:40;101399.59;;;11.14;75.56
25869;BME280;13688;53.154;18.136;2022-07-17T00:18:02;101395.59;;;11.07;75.70
25869;BME280;13688;53.154;18.136;2022-07-17T00:23:26;101409.50;;;11.01;75.92
25869;BME280;13688;53.154;18.136;2022-07-17T00:28:50;101412.70;;;10.94;75.96
25869;BME280;13688;53.154;18.136;2022-07-17T00:34:12;101411.39;;;10.86;76.13
25869;BME280;13688;53.154;18.136;2022-07-17T00:39:35;101411.79;;;10.80;76.38
25869;BME280;13688;53.154;18.136;2022-07-17T00:44:58;101407.59;;;10.76;76.55
25869;BME280;13688;53.154;18.136;2022-07-17T00:50:25;101413.09;;;10.75;76.73
25869;BME280;13688;53.154;18.136;2022-07-17T00:55:50;101415.02;;;10.73;76.87
25869;BME280;13688;53.154;18.136;2022-07-17T01:01:13;101418.76;;;10.70;77.12
25869;BME280;13688;53.154;18.136;2022-07-17T01:06:37;101421.55;;;10.69;77.31
25869;BME280;13688;53.154;18.136;2022-07-17T01:12:00;101419.38;;;10.61;77.41
25869;BME280;13688;53.154;18.136;2022-07-17T01:17:23;101427.44;;;10.61;77.57
25869;BME280;13688;53.154;18.136;2022-07-17T01:22:54;101432.06;;;10.59;77.74
25869;BME280;13688;53.154;18.136;2022-07-17T01:28:10;101430.45;;;10.56;77.83
25869;BME280;13688;53.154;18.136;2022-07-17T01:33:33;101435.94;;;10.55;78.13
25869;BME280;13688;53.154;18.136;2022-07-17T01:38:56;101437.87;;;10.53;78.20
25869;BME280;13688;53.154;18.136;2022-07-17T01:44:18;101431.70;;;10.51;78.30
25869;BME280;13688;53.154;18.136;2022-07-17T01:49:51;101438.16;;;10.48;78.38
25869;BME280;13688;53.154;18.136;2022-07-17T01:55:15;101436.75;;;10.43;78.53
25869;BME280;13688;53.154;18.136;2022-07-17T02:00:38;101430.80;;;10.38;78.59
25869;BME280;13688;53.154;18.136;2022-07-17T02:06:01;101432.91;;;10.32;78.78
25869;BME280;13688;53.154;18.136;2022-07-17T02:11:25;101421.41;;;10.30;78.87
25869;BME280;13688;53.154;18.136;2022-07-17T02:16:47;101425.05;;;10.29;78.99
25869;BME280;13688;53.154;18.136;2022-07-17T02:22:10;101427.75;;;10.29;79.20
25869;BME280;13688;53.154;18.136;2022-07-17T02:27:32;101429.67;;;10.27;79.17
25869;BME280;13688;53.154;18.136;2022-07-17T02:32:56;101438.81;;;10.25;79.37
25869;BME280;13688;53.154;18.136;2022-07-17T02:38:18;101449.73;;;10.22;79.43
25869;BME280;13688;53.154;18.136;2022-07-17T02:43:41;101439.92;;;10.21;79.58
25869;BME280;13688;53.154;18.136;2022-07-17T02:49:04;101435.52;;;10.20;79.62
25869;BME280;13688;53.154;18.136;2022-07-17T02:54:26;101454.33;;;10.20;79.75
25869;BME280;13688;53.154;18.136;2022-07-17T02:59:49;101447.91;;;10.22;79.91
25869;BME280;13688;53.154;18.136;2022-07-17T03:05:12;101458.73;;;10.21;80.04
25869;BME280;13688;53.154;18.136;2022-07-17T03:10:35;101464.11;;;10.21;80.10
25869;BME280;13688;53.154;18.136;2022-07-17T03:15:57;101478.41;;;10.21;80.24
25869;BME280;13688;53.154;18.136;2022-07-17T03:21:19;101483.78;;;10.21;80.32
25869;BME280;13688;53.154;18.136;2022-07-17T03:26:42;101479.47;;;10.19;80.35
25869;BME280;13688;53.154;18.136;2022-07-17T03:32:06;101483.02;;;10.19;80.41
25869;BME280;13688;53.154;18.136;2022-07-17T03:37:28;101492.73;;;10.22;80.59
25869;BME280;13688;53.154;18.136;2022-07-17T03:42:53;101490.73;;;10.25;80.70
25869;BME280;13688;53.154;18.136;2022-07-17T03:48:16;101495.70;;;10.31;80.77
25869;BME280;13688;53.154;18.136;2022-07-17T03:53:39;101489.84;;;10.39;80.88
25869;BME280;13688;53.154;18.136;2022-07-17T03:59:03;101500.75;;;10.50;81.11
25869;BME280;13688;53.154;18.136;2022-07-17T04:04:25;101498.54;;;10.57;81.16
25869;BME280;13688;53.154;18.136;2022-07-17T04:09:47;101495.25;;;10.66;81.11
25869;BME280;13688;53.154;18.136;2022-07-17T04:15:12;101499.05;;;10.76;81.11
25869;BME280;13688;53.154;18.136;2022-07-17T04:20:54;101502.00;;;10.86;81.19
25869;BME280;13688;53.154;18.136;2022-07-17T04:26:18;101502.14;;;10.97;81.21
25869;BME280;13688;53.154;18.136;2022-07-17T04:31:42;101503.92;;;11.11;81.25
25869;BME280;13688;53.154;18.136;2022-07-17T04:37:06;101504.91;;;11.23;81.27
25869;BME280;13688;53.154;18.136;2022-07-17T04:42:29;101517.31;;;11.38;81.33
25869;BME280;13688;53.154;18.136;2022-07-17T04:47:51;101516.16;;;11.55;81.36
25869;BME280;13688;53.154;18.136;2022-07-17T04:53:14;101517.80;;;11.70;81.38
25869;BME280;13688;53.154;18.136;2022-07-17T04:58:37;101522.02;;;11.87;81.31
25869;BME280;13688;53.154;18.136;2022-07-17T05:03:59;101527.95;;;12.04;81.37
25869;BME280;13688;53.154;18.136;2022-07-17T05:09:22;101532.03;;;12.23;81.40
25869;BME280;13688;53.154;18.136;2022-07-17T05:14:44;101524.33;;;12.42;80.98
25869;BME280;13688;53.154;18.136;2022-07-17T05:20:09;101540.04;;;12.61;81.03
25869;BME280;13688;53.154;18.136;2022-07-17T05:25:32;101537.70;;;12.80;80.99
25869;BME280;13688;53.154;18.136;2022-07-17T05:30:55;101548.00;;;12.99;80.85
25869;BME280;13688;53.154;18.136;2022-07-17T05:36:18;101550.95;;;13.20;80.85
25869;BME280;13688;53.154;18.136;2022-07-17T05:41:40;101564.58;;;13.42;80.68
25869;BME280;13688;53.154;18.136;2022-07-17T05:47:03;101560.22;;;13.64;80.50
25869;BME280;13688;53.154;18.136;2022-07-17T05:52:25;101576.73;;;13.83;80.16
25869;BME280;13688;53.154;18.136;2022-07-17T05:57:47;101588.56;;;14.04;79.90
25869;BME280;13688;53.154;18.136;2022-07-17T06:03:11;101584.16;;;14.26;79.59
25869;BME280;13688;53.154;18.136;2022-07-17T06:08:33;101588.00;;;14.46;79.23
25869;BME280;13688;53.154;18.136;2022-07-17T06:13:56;101597.98;;;14.68;78.65
25869;BME280;13688;53.154;18.136;2022-07-17T06:19:18;101611.62;;;14.88;77.79
25869;BME280;13688;53.154;18.136;2022-07-17T06:24:40;101612.82;;;15.07;76.66
25869;BME280;13688;53.154;18.136;2022-07-17T06:30:03;101609.55;;;15.24;76.01
25869;BME280;13688;53.154;18.136;2022-07-17T06:35:28;101598.16;;;15.41;75.46
25869;BME280;13688;53.154;18.136;2022-07-17T06:40:51;101599.32;;;15.60;74.88
25869;BME280;13688;53.154;18.136;2022-07-17T06:46:14;101604.58;;;15.72;74.07
25869;BME280;13688;53.154;18.136;2022-07-17T06:51:36;101621.68;;;15.84;72.56
25869;BME280;13688;53.154;18.136;2022-07-17T06:56:59;101625.45;;;15.93;72.05
25869;BME280;13688;53.154;18.136;2022-07-17T07:02:22;101629.68;;;16.07;71.62
25869;BME280;13688;53.154;18.136;2022-07-17T07:07:44;101626.37;;;16.24;70.63
25869;BME280;13688;53.154;18.136;2022-07-17T07:13:07;101630.19;;;16.42;70.02
25869;BME280;13688;53.154;18.136;2022-07-17T07:18:29;101627.95;;;16.57;69.37
25869;BME280;13688;53.154;18.136;2022-07-17T07:23:53;101641.08;;;16.73;68.35
25869;BME280;13688;53.154;18.136;2022-07-17T07:29:15;101636.39;;;16.84;67.48
25869;BME280;13688;53.154;18.136;2022-07-17T07:34:37;101638.86;;;16.97;66.32
25869;BME280;13688;53.154;18.136;2022-07-17T07:40:00;101631.48;;;17.09;66.10
25869;BME280;13688;53.154;18.136;2022-07-17T07:45:23;101641.53;;;17.28;65.22
25869;BME280;13688;53.154;18.136;2022-07-17T07:50:46;101646.56;;;17.52;64.66
25869;BME280;13688;53.154;18.136;2022-07-17T07:56:08;101659.05;;;17.73;63.67
25869;BME280;13688;53.154;18.136;2022-07-17T08:01:30;101646.03;;;17.96;62.88
25869;BME280;13688;53.154;18.136;2022-07-17T08:06:53;101669.91;;;18.22;61.70
25869;BME280;13688;53.154;18.136;2022-07-17T08:12:17;101660.98;;;18.39;60.79
25869;BME280;13688;53.154;18.136;2022-07-17T08:17:41;101675.56;;;18.57;58.98
25869;BME280;13688;53.154;18.136;2022-07-17T08:23:05;101670.08;;;18.77;58.24
25869;BME280;13688;53.154;18.136;2022-07-17T08:28:28;101666.73;;;18.93;56.77
25869;BME280;13688;53.154;18.136;2022-07-17T08:33:51;101684.09;;;18.92;56.41
25869;BME280;13688;53.154;18.136;2022-07-17T08:39:15;101678.68;;;18.82;55.38
25869;BME280;13688;53.154;18.136;2022-07-17T08:44:37;101675.80;;;18.83;54.94
25869;BME280;13688;53.154;18.136;2022-07-17T08:50:01;101680.94;;;18.86;54.40
25869;BME280;13688;53.154;18.136;2022-07-17T08:55:24;101701.06;;;18.76;53.57
25869;BME280;13688;53.154;18.136;2022-07-17T09:00:47;101683.55;;;18.78;53.13
25869;BME280;13688;53.154;18.136;2022-07-17T09:06:19;101687.09;;;18.88;52.89
25869;BME280;13688;53.154;18.136;2022-07-17T09:11:51;101677.80;;;18.81;52.37
25869;BME280;13688;53.154;18.136;2022-07-17T09:17:16;101672.83;;;19.04;50.32
25869;BME280;13688;53.154;18.136;2022-07-17T09:22:38;101673.63;;;19.42;50.19
25869;BME280;13688;53.154;18.136;2022-07-17T09:28:03;101685.00;;;19.55;49.24
25869;BME280;13688;53.154;18.136;2022-07-17T09:33:32;101672.38;;;19.54;48.99
25869;BME280;13688;53.154;18.136;2022-07-17T09:38:57;101679.92;;;19.70;48.25
25869;BME280;13688;53.154;18.136;2022-07-17T09:44:20;101665.27;;;19.89;48.52
25869;BME280;13688;53.154;18.136;2022-07-17T09:49:44;101672.09;;;20.11;47.82
25869;BME280;13688;53.154;18.136;2022-07-17T09:55:09;101673.97;;;20.10;46.92
25869;BME280;13688;53.154;18.136;2022-07-17T10:00:35;101668.09;;;20.23;46.05
25869;BME280;13688;53.154;18.136;2022-07-17T10:05:58;101671.91;;;20.30;45.07
25869;BME280;13688;53.154;18.136;2022-07-17T10:11:26;101667.13;;;20.32;44.88
25869;BME280;13688;53.154;18.136;2022-07-17T10:16:53;101670.55;;;20.34;45.28
25869;BME280;13688;53.154;18.136;2022-07-17T10:22:26;101674.13;;;20.52;44.64
25869;BME280;13688;53.154;18.136;2022-07-17T10:28:00;101685.50;;;20.66;43.60
25869;BME280;13688;53.154;18.136;2022-07-17T10:33:23;101666.20;;;20.67;43.59
25869;BME280;13688;53.154;18.136;2022-07-17T10:38:47;101691.27;;;20.63;43.71
25869;BME280;13688;53.154;18.136;2022-07-17T10:44:10;101671.86;;;20.74;43.52
25869;BME280;13688;53.154;18.136;2022-07-17T10:49:34;101682.55;;;20.93;42.82
25869;BME280;13688;53.154;18.136;2022-07-17T10:54:57;101708.11;;;20.76;42.92
25869;BME280;13688;53.154;18.136;2022-07-17T11:00:22;101685.17;;;20.69;42.89
25869;BME280;13688;53.154;18.136;2022-07-17T11:05:45;101682.54;;;20.85;42.45
25869;BME280;13688;53.154;18.136;2022-07-17T11:11:08;101698.48;;;20.98;41.85
25869;BME280;13688;53.154;18.136;2022-07-17T11:16:35;101683.53;;;21.18;40.92
25869;BME280;13688;53.154;18.136;2022-07-17T11:22:06;101693.09;;;21.14;40.83
25869;BME280;13688;53.154;18.136;2022-07-17T11:27:34;101695.12;;;21.12;40.99
25869;BME280;13688;53.154;18.136;2022-07-17T11:32:57;101690.30;;;21.40;40.70
25869;BME280;13688;53.154;18.136;2022-07-17T11:38:25;101690.84;;;21.43;40.60
25869;BME280;13688;53.154;18.136;2022-07-17T11:43:51;101688.13;;;21.60;40.87
25869;BME280;13688;53.154;18.136;2022-07-17T11:49:23;101691.25;;;21.73;39.51
25869;BME280;13688;53.154;18.136;2022-07-17T11:54:51;101681.31;;;21.64;39.11
25869;BME280;13688;53.154;18.136;2022-07-17T12:00:16;101691.56;;;21.70;39.08
25869;BME280;13688;53.154;18.136;2022-07-17T12:05:40;101686.79;;;21.80;39.36
25869;BME280;13688;53.154;18.136;2022-07-17T12:11:11;101683.77;;;22.16;38.68
25869;BME280;13688;53.154;18.136;2022-07-17T12:16:36;101712.34;;;22.46;37.40
25869;BME280;13688;53.154;18.136;2022-07-17T12:22:03;101675.50;;;22.56;37.39
25869;BME280;13688;53.154;18.136;2022-07-17T12:27:27;101718.00;;;22.52;36.69
25869;BME280;13688;53.154;18.136;2022-07-17T12:32:49;101716.80;;;22.47;36.68
25869;BME280;13688;53.154;18.136;2022-07-17T12:38:12;101698.69;;;22.30;36.87
25869;BME280;13688;53.154;18.136;2022-07-17T12:43:35;101696.29;;;22.10;36.60
25869;BME280;13688;53.154;18.136;2022-07-17T12:48:57;101691.81;;;22.25;36.39
25869;BME280;13688;53.154;18.136;2022-07-17T12:54:20;101686.83;;;22.45;36.37
25869;BME280;13688;53.154;18.136;2022-07-17T12:59:42;101685.94;;;22.69;36.49
25869;BME280;13688;53.154;18.136;2022-07-17T13:05:05;101695.83;;;22.95;35.54
25869;BME280;13688;53.154;18.136;2022-07-17T13:10:28;101687.30;;;23.29;35.64
25869;BME280;13688;53.154;18.136;2022-07-17T13:15:50;101697.31;;;23.45;34.70
25869;BME280;13688;53.154;18.136;2022-07-17T13:21:13;101698.20;;;23.45;34.90
25869;BME280;13688;53.154;18.136;2022-07-17T13:26:36;101700.20;;;23.20;35.23
25869;BME280;13688;53.154;18.136;2022-07-17T13:32:00;101686.92;;;23.32;35.79
25869;BME280;13688;53.154;18.136;2022-07-17T13:37:22;101700.72;;;23.55;35.45
25869;BME280;13688;53.154;18.136;2022-07-17T13:42:47;101696.23;;;23.54;34.60
25869;BME280;13688;53.154;18.136;2022-07-17T13:48:09;101693.94;;;23.34;34.96
25869;BME280;13688;53.154;18.136;2022-07-17T13:53:32;101695.56;;;23.60;34.84
25869;BME280;13688;53.154;18.136;2022-07-17T13:58:55;101688.45;;;23.96;34.25
25869;BME280;13688;53.154;18.136;2022-07-17T14:04:17;101700.48;;;23.95;34.22
25869;BME280;13688;53.154;18.136;2022-07-17T14:09:40;101718.23;;;24.08;34.40
25869;BME280;13688;53.154;18.136;2022-07-17T14:15:03;101711.06;;;24.21;33.81
25869;BME280;13688;53.154;18.136;2022-07-17T14:20:26;101689.48;;;24.56;33.77
25869;BME280;13688;53.154;18.136;2022-07-17T14:25:49;101692.38;;;25.07;33.04
25869;BME280;13688;53.154;18.136;2022-07-17T14:31:11;101702.19;;;25.46;30.79
25869;BME280;13688;53.154;18.136;2022-07-17T14:36:34;101684.37;;;25.27;31.12
25869;BME280;13688;53.154;18.136;2022-07-17T14:41:57;101679.27;;;24.94;30.88
25869;BME280;13688;53.154;18.136;2022-07-17T14:47:20;101689.61;;;24.92;32.49
25869;BME280;13688;53.154;18.136;2022-07-17T14:52:42;101667.05;;;25.11;31.42
25869;BME280;13688;53.154;18.136;2022-07-17T14:58:05;101694.67;;;25.54;30.50
25869;BME280;13688;53.154;18.136;2022-07-17T15:03:27;101669.26;;;25.37;30.02
25869;BME280;13688;53.154;18.136;2022-07-17T15:08:50;101666.95;;;25.20;30.66
25869;BME280;13688;53.154;18.136;2022-07-17T15:14:12;101667.44;;;25.45;31.36
25869;BME280;13688;53.154;18.136;2022-07-17T15:19:35;101666.69;;;25.87;30.64
25869;BME280;13688;53.154;18.136;2022-07-17T15:24:58;101671.77;;;26.11;29.85
25869;BME280;13688;53.154;18.136;2022-07-17T15:30:20;101675.17;;;26.13;29.61
25869;BME280;13688;53.154;18.136;2022-07-17T15:35:43;101667.02;;;25.62;29.61
25869;BME280;13688;53.154;18.136;2022-07-17T15:41:07;101674.99;;;25.93;29.88
25869;BME280;13688;53.154;18.136;2022-07-17T15:46:29;101667.37;;;25.74;30.06
25869;BME280;13688;53.154;18.136;2022-07-17T15:51:55;101681.00;;;26.74;29.95
25869;BME280;13688;53.154;18.136;2022-07-17T15:57:18;101670.89;;;27.97;27.09
25869;BME280;13688;53.154;18.136;2022-07-17T16:02:43;101666.41;;;28.75;26.03
25869;BME280;13688;53.154;18.136;2022-07-17T16:08:05;101685.53;;;27.71;25.80
25869;BME280;13688;53.154;18.136;2022-07-17T16:13:28;101679.31;;;27.62;26.96
25869;BME280;13688;53.154;18.136;2022-07-17T16:18:51;101684.52;;;28.71;26.55
25869;BME280;13688;53.154;18.136;2022-07-17T16:24:14;101665.53;;;29.53;25.66
25869;BME280;13688;53.154;18.136;2022-07-17T16:29:37;101658.33;;;30.15;24.25
25869;BME280;13688;53.154;18.136;2022-07-17T16:35:00;101654.70;;;30.83;23.51
25869;BME280;13688;53.154;18.136;2022-07-17T16:40:23;101663.13;;;31.61;22.06
25869;BME280;13688;53.154;18.136;2022-07-17T16:45:45;101654.89;;;30.63;22.14
25869;BME280;13688;53.154;18.136;2022-07-17T16:51:08;101654.28;;;29.79;23.71
25869;BME280;13688;53.154;18.136;2022-07-17T16:56:33;101657.31;;;30.77;23.21
25869;BME280;13688;53.154;18.136;2022-07-17T17:01:56;101662.62;;;31.16;22.18
25869;BME280;13688;53.154;18.136;2022-07-17T17:07:20;101658.63;;;31.78;21.19
25869;BME280;13688;53.154;18.136;2022-07-17T17:12:43;101646.41;;;32.33;20.79
25869;BME280;13688;53.154;18.136;2022-07-17T17:18:05;101651.48;;;32.71;20.23
25869;BME280;13688;53.154;18.136;2022-07-17T17:23:28;101654.37;;;33.11;20.01
25869;BME280;13688;53.154;18.136;2022-07-17T17:28:51;101657.31;;;32.93;20.24
25869;BME280;13688;53.154;18.136;2022-07-17T17:34:19;101659.94;;;32.29;20.22
25869;BME280;13688;53.154;18.136;2022-07-17T17:39:43;101659.07;;;32.05;20.63
25869;BME280;13688;53.154;18.136;2022-07-17T17:45:07;101675.11;;;32.45;19.71
25869;BME280;13688;53.154;18.136;2022-07-17T17:50:43;101665.41;;;32.59;19.23
25869;BME280;13688;53.154;18.136;2022-07-17T17:56:06;101662.38;;;32.61;19.93
25869;BME280;13688;53.154;18.136;2022-07-17T18:01:32;101658.22;;;32.05;20.27
25869;BME280;13688;53.154;18.136;2022-07-17T18:06:57;101670.14;;;31.63;20.26
25869;BME280;13688;53.154;18.136;2022-07-17T18:12:21;101661.70;;;30.67;20.22
25869;BME280;13688;53.154;18.136;2022-07-17T18:17:49;101663.86;;;29.45;21.50
25869;BME280;13688;53.154;18.136;2022-07-17T18:23:11;101680.94;;;28.51;22.29
25869;BME280;13688;53.154;18.136;2022-07-17T18:28:39;101675.57;;;27.97;23.07
25869;BME280;13688;53.154;18.136;2022-07-17T18:34:08;101672.81;;;27.29;23.76
25869;BME280;13688;53.154;18.136;2022-07-17T18:39:30;101672.80;;;26.32;24.55
25869;BME280;13688;53.154;18.136;2022-07-17T18:45:04;101670.51;;;25.35;25.52
25869;BME280;13688;53.154;18.136;2022-07-17T18:50:27;101682.43;;;24.39;26.72
25869;BME280;13688;53.154;18.136;2022-07-17T18:55:51;101695.56;;;23.60;27.93
25869;BME280;13688;53.154;18.136;2022-07-17T19:01:13;101698.59;;;22.87;28.90
25869;BME280;13688;53.154;18.136;2022-07-17T19:06:36;101691.49;;;22.20;29.99
25869;BME280;13688;53.154;18.136;2022-07-17T19:11:59;101697.39;;;21.67;31.08
25869;BME280;13688;53.154;18.136;2022-07-17T19:17:24;101703.53;;;21.19;32.01
25869;BME280;13688;53.154;18.136;2022-07-17T19:22:47;101712.86;;;20.74;32.98
25869;BME280;13688;53.154;18.136;2022-07-17T19:28:13;101725.74;;;20.38;33.90
25869;BME280;13688;53.154;18.136;2022-07-17T19:33:37;101726.78;;;20.01;34.68
25869;BME280;13688;53.154;18.136;2022-07-17T19:39:00;101731.89;;;19.68;35.53
25869;BME280;13688;53.154;18.136;2022-07-17T19:44:22;101737.49;;;19.39;36.38
25869;BME280;13688;53.154;18.136;2022-07-17T19:49:45;101740.52;;;19.09;37.14
25869;BME280;13688;53.154;18.136;2022-07-17T19:55:08;101744.50;;;18.77;37.92
25869;BME280;13688;53.154;18.136;2022-07-17T20:00:31;101745.09;;;18.52;38.94
25869;BME280;13688;53.154;18.136;2022-07-17T20:05:54;101754.14;;;18.33;39.78
25869;BME280;13688;53.154;18.136;2022-07-17T20:11:17;101744.86;;;18.16;40.51
25869;BME280;13688;53.154;18.136;2022-07-17T20:16:39;101742.40;;;18.03;40.97
25869;BME280;13688;53.154;18.136;2022-07-17T20:22:02;101744.26;;;17.93;41.36
25869;BME280;13688;53.154;18.136;2022-07-17T20:27:25;101745.97;;;17.85;41.68
25869;BME280;13688;53.154;18.136;2022-07-17T20:32:48;101748.41;;;17.78;42.01
25869;BME280;13688;53.154;18.136;2022-07-17T20:38:10;101740.66;;;17.73;42.42
25869;BME280;13688;53.154;18.136;2022-07-17T20:43:33;101743.93;;;17.67;42.80
25869;BME280;13688;53.154;18.136;2022-07-17T20:48:56;101752.92;;;17.58;43.07
25869;BME280;13688;53.154;18.136;2022-07-17T20:54:18;101751.44;;;17.44;43.24
25869;BME280;13688;53.154;18.136;2022-07-17T20:59:42;101751.23;;;17.27;43.57
25869;BME280;13688;53.154;18.136;2022-07-17T21:05:04;101744.86;;;17.07;43.90
25869;BME280;13688;53.154;18.136;2022-07-17T21:10:27;101751.39;;;16.95;44.56
25869;BME280;13688;53.154;18.136;2022-07-17T21:15:50;101752.81;;;16.89;45.04
25869;BME280;13688;53.154;18.136;2022-07-17T21:21:13;101759.63;;;16.83;45.33
25869;BME280;13688;53.154;18.136;2022-07-17T21:26:36;101747.99;;;16.72;45.56
25869;BME280;13688;53.154;18.136;2022-07-17T21:31:58;101756.29;;;16.59;45.69
25869;BME280;13688;53.154;18.136;2022-07-17T21:37:20;101760.48;;;16.42;46.08
25869;BME280;13688;53.154;18.136;2022-07-17T21:42:43;101762.37;;;16.30;46.42
25869;BME280;13688;53.154;18.136;2022-07-17T21:48:05;101765.49;;;16.26;46.85
25869;BME280;13688;53.154;18.136;2022-07-17T21:53:27;101771.33;;;16.21;47.18
25869;BME280;13688;53.154;18.136;2022-07-17T21:58:50;101768.98;;;16.17;47.46
25869;BME280;13688;53.154;18.136;2022-07-17T22:04:13;101765.33;;;16.07;47.78
25869;BME280;13688;53.154;18.136;2022-07-17T22:09:36;101767.36;;;15.93;48.34
25869;BME280;13688;53.154;18.136;2022-07-17T22:14:58;101770.34;;;15.79;48.81
25869;BME280;13688;53.154;18.136;2022-07-17T22:20:22;101769.16;;;15.61;49.15
25869;BME280;13688;53.154;18.136;2022-07-17T22:25:45;101769.03;;;15.40;49.87
25869;BME280;13688;53.154;18.136;2022-07-17T22:31:09;101769.30;;;15.26;50.46
25869;BME280;13688;53.154;18.136;2022-07-17T22:36:32;101770.27;;;15.13;51.10
25869;BME280;13688;53.154;18.136;2022-07-17T22:41:55;101761.28;;;15.02;51.58
25869;BME280;13688;53.154;18.136;2022-07-17T22:47:18;101769.16;;;14.94;52.03
25869;BME280;13688;53.154;18.136;2022-07-17T22:52:41;101760.04;;;14.83;52.41
25869;BME280;13688;53.154;18.136;2022-07-17T22:58:05;101760.64;;;14.76;52.80
25869;BME280;13688;53.154;18.136;2022-07-17T23:03:28;101764.70;;;14.70;53.07
25869;BME280;13688;53.154;18.136;2022-07-17T23:08:51;101755.59;;;14.60;53.49
25869;BME280;13688;53.154;18.136;2022-07-17T23:14:13;101750.64;;;14.54;53.91
25869;BME280;13688;53.154;18.136;2022-07-17T23:19:36;101756.42;;;14.49;54.21
25869;BME280;13688;53.154;18.136;2022-07-17T23:24:58;101753.16;;;14.44;54.51
25869;BME280;13688;53.154;18.136;2022-07-17T23:30:21;101757.97;;;14.41;54.79
25869;BME280;13688;53.154;18.136;2022-07-17T23:35:44;101749.33;;;14.36;55.15
25869;BME280;13688;53.154;18.136;2022-07-17T23:41:06;101756.83;;;14.32;55.43
25869;BME280;13688;53.154;18.136;2022-07-17T23:46:29;101762.36;;;14.30;55.72
25869;BME280;13688;53.154;18.136;2022-07-17T23:51:52;101762.48;;;14.29;55.98
25869;BME280;13688;53.154;18.136;2022-07-17T23:57:14;101764.42;;;14.27;56.24
